createdAt,value
2019-04-21T00:01:34.702Z,102665.12
2019-04-21T00:04:12.442Z,102659.32
2019-04-21T00:06:48.168Z,102661.00
2019-04-21T00:09:26.074Z,102658.26
2019-04-21T00:11:57.169Z,102650.99
2019-04-21T00:14:18.132Z,102642.90
2019-04-21T00:16:45.426Z,102645.94
2019-04-21T00:19:14.491Z,102639.07
2019-04-21T00:21:45.232Z,102638.81
2019-04-21T00:24:24.264Z,102640.52
2019-04-21T00:27:04.107Z,102637.73
2019-04-21T00:29:38.466Z,102632.30
2019-04-21T00:32:03.391Z,102635.20
2019-04-21T00:34:19.457Z,102629.77
2019-04-21T00:37:00.157Z,102631.34
2019-04-21T00:39:49.574Z,102628.91
2019-04-21T00:42:12.957Z,102630.48
2019-04-21T00:44:29.842Z,102626.77
2019-04-21T00:47:03.075Z,102627.97
2019-04-21T00:49:37.667Z,102629.17
2019-04-21T00:52:28.837Z,102632.06
2019-04-21T00:55:05.992Z,102629.28
2019-04-21T00:57:25.212Z,102623.84
2019-04-21T00:59:52.266Z,102623.25
2019-04-21T01:02:26.125Z,102621.90
2019-04-21T01:05:02.078Z,102622.03
2019-04-21T01:07:26.928Z,102623.95
2019-04-21T01:09:49.671Z,102619.75
2019-04-21T01:12:26.828Z,102622.14
2019-04-21T01:15:04.670Z,102617.92
2019-04-21T01:17:30.270Z,102619.95
2019-04-21T01:19:56.032Z,102616.34
2019-04-21T01:22:08.945Z,102618.49
2019-04-21T01:24:42.943Z,102619.69
2019-04-21T01:27:21.650Z,102615.57
2019-04-21T01:30:02.961Z,102609.80
2019-04-21T01:32:29.545Z,102608.34
2019-04-21T01:35:02.478Z,102609.53
2019-04-21T01:37:41.164Z,102605.64
2019-04-21T01:40:14.009Z,102605.64
2019-04-21T01:42:33.524Z,102599.97
2019-04-21T01:45:00.043Z,102605.87
2019-04-21T01:47:29.325Z,102603.95
2019-04-21T01:49:53.320Z,102599.34
2019-04-21T01:55:06.013Z,102594.52
2019-04-21T01:57:37.732Z,102594.75
2019-04-21T02:00:04.044Z,102588.81
2019-04-21T02:02:46.221Z,102588.58
2019-04-21T02:05:18.778Z,102591.45
2019-04-21T02:07:44.321Z,102588.93
2019-04-21T02:10:22.663Z,102587.70
2019-04-21T02:12:46.034Z,102586.23
2019-04-21T02:15:17.085Z,102576.81
2019-04-21T02:17:43.733Z,102578.73
2019-04-21T02:20:09.410Z,102583.30
2019-04-21T02:23:06.415Z,102578.85
2019-04-21T02:25:22.879Z,102569.80
2019-04-21T02:27:54.755Z,102562.08
2019-04-21T02:30:33.523Z,102564.22
2019-04-21T02:33:02.803Z,102555.76
2019-04-21T02:35:38.493Z,102552.96
2019-04-21T02:38:01.198Z,102553.78
2019-04-21T02:40:33.960Z,102549.66
2019-04-21T02:43:07.104Z,102548.59
2019-04-21T02:45:30.196Z,102544.10
2019-04-21T02:48:04.644Z,102548.76
2019-04-21T02:50:34.023Z,102537.66
2019-04-21T02:53:13.933Z,102537.74
2019-04-21T02:55:31.163Z,102529.66
2019-04-21T02:58:09.995Z,102527.59
2019-04-21T03:03:13.454Z,102515.05
2019-04-21T03:05:54.688Z,102524.31
2019-04-21T03:08:25.911Z,102518.87
2019-04-21T03:13:29.153Z,102520.05
2019-04-21T03:18:24.361Z,102510.63
2019-04-21T03:21:00.956Z,102508.94
2019-04-21T03:23:31.259Z,102512.17
2019-04-21T03:25:51.986Z,102499.52
2019-04-21T03:40:57.302Z,102492.97
2019-04-21T03:43:36.441Z,102490.91
2019-04-21T03:45:58.826Z,102487.91
2019-04-21T03:48:35.756Z,102492.37
2019-04-21T03:51:04.847Z,102487.75
2019-04-21T03:53:31.307Z,102489.07
2019-04-21T03:56:12.452Z,102485.72
2019-04-21T03:58:53.054Z,102487.41
2019-04-21T04:01:08.273Z,102486.67
2019-04-21T04:06:20.549Z,102490.50
2019-04-21T04:08:59.009Z,102485.20
2019-04-21T04:11:31.689Z,102487.48
2019-04-21T04:14:04.094Z,102484.09
2019-04-21T04:19:05.884Z,102485.42
2019-04-21T04:26:37.005Z,102487.70
2019-04-21T04:29:06.242Z,102493.72
2019-04-21T04:34:04.758Z,102489.76
2019-04-21T04:39:37.987Z,102485.57
2019-04-21T04:42:03.342Z,102482.34
2019-04-21T04:44:51.542Z,102481.75
2019-04-21T04:47:05.843Z,102488.13
2019-04-21T04:54:41.821Z,102478.79
2019-04-21T04:57:08.208Z,102483.77
2019-04-21T05:02:14.898Z,102471.88
2019-04-21T05:04:35.476Z,102470.70
2019-04-21T05:09:30.831Z,102472.69
2019-04-21T05:12:00.124Z,102474.13
2019-04-21T05:14:30.429Z,102475.00
2019-04-21T05:17:08.574Z,102470.58
2019-04-21T05:19:34.726Z,102470.91
2019-04-21T05:24:23.060Z,102474.45
2019-04-21T05:26:53.389Z,102471.11
2019-04-21T05:29:20.400Z,102472.12
2019-04-21T05:32:09.300Z,102469.01
2019-04-21T05:34:37.394Z,102464.56
2019-04-21T05:37:18.767Z,102465.33
2019-04-21T05:39:37.532Z,102467.00
2019-04-21T05:42:08.142Z,102456.41
2019-04-21T05:44:59.396Z,102460.73
2019-04-21T05:49:52.403Z,102450.13
2019-04-21T05:52:21.426Z,102455.39
2019-04-21T05:54:57.448Z,102450.43
2019-04-21T05:57:22.941Z,102457.05
2019-04-21T05:59:53.666Z,102452.41
2019-04-21T06:02:47.940Z,102447.53
2019-04-21T06:05:05.877Z,102442.55
2019-04-21T06:07:28.766Z,102436.69
2019-04-21T06:09:59.644Z,102442.43
2019-04-21T06:12:31.591Z,102445.91
2019-04-21T06:15:02.598Z,102438.84
2019-04-21T06:20:00.123Z,102436.73
2019-04-21T06:22:30.112Z,102435.70
2019-04-21T06:27:38.903Z,102436.22
2019-04-21T06:30:04.168Z,102425.84
2019-04-21T06:32:47.183Z,102425.74
2019-04-21T06:35:23.776Z,102424.01
2019-04-21T06:37:56.999Z,102432.72
2019-04-21T06:40:21.347Z,102424.81
2019-04-21T06:42:53.910Z,102425.05
2019-04-21T06:45:21.664Z,102419.33
2019-04-21T06:48:04.237Z,102416.57
2019-04-21T06:50:15.833Z,102414.47
2019-04-21T06:55:15.329Z,102407.29
2019-04-21T06:57:45.674Z,102404.84
2019-04-21T07:00:12.041Z,102402.06
2019-04-21T07:02:52.121Z,102404.59
2019-04-21T07:05:24.745Z,102400.11
2019-04-21T07:08:05.764Z,102401.62
2019-04-21T07:10:24.194Z,102399.80
2019-04-21T07:12:48.288Z,102400.98
2019-04-21T07:15:25.293Z,102400.45
2019-04-21T07:17:53.993Z,102392.94
2019-04-21T07:20:21.541Z,102393.37
2019-04-21T07:22:55.170Z,102392.15
2019-04-21T07:25:22.567Z,102393.59
2019-04-21T07:27:52.652Z,102398.03
2019-04-21T07:30:31.530Z,102387.42
2019-04-21T07:33:05.587Z,102381.13
2019-04-21T07:35:26.535Z,102375.00
2019-04-21T07:37:57.684Z,102376.42
2019-04-21T07:40:23.137Z,102376.32
2019-04-21T07:42:57.649Z,102376.72
2019-04-21T07:45:26.571Z,102374.44
2019-04-21T07:48:16.836Z,102377.00
2019-04-21T07:51:04.294Z,102365.66
2019-04-21T07:53:49.422Z,102364.36
2019-04-21T07:56:06.502Z,102368.57
2019-04-21T07:58:53.766Z,102357.49
2019-04-21T08:01:20.171Z,102358.17
2019-04-21T08:04:14.807Z,102358.00
2019-04-21T08:06:20.728Z,102357.16
2019-04-21T08:08:51.060Z,102354.47
2019-04-21T08:11:15.280Z,102358.00
2019-04-21T08:13:55.129Z,102353.78
2019-04-21T08:16:24.444Z,102357.45
2019-04-21T08:18:52.366Z,102350.54
2019-04-21T08:21:24.631Z,102346.63
2019-04-21T08:23:48.513Z,102343.91
2019-04-21T08:26:24.570Z,102346.86
2019-04-21T08:28:52.102Z,102340.77
2019-04-21T08:38:58.264Z,102339.86
2019-04-21T08:41:27.728Z,102337.94
2019-04-21T08:43:56.124Z,102336.67
2019-04-21T08:46:31.549Z,102333.56
2019-04-21T08:49:04.333Z,102326.05
2019-04-21T08:51:33.294Z,102328.97
2019-04-21T08:54:03.923Z,102324.63
2019-04-21T08:56:48.303Z,102323.99
2019-04-21T08:59:25.523Z,102316.81
2019-04-21T09:01:55.573Z,102313.98
2019-04-21T09:04:29.007Z,102307.97
2019-04-21T09:07:19.630Z,102315.67
2019-04-21T09:09:38.131Z,102311.39
2019-04-21T09:12:04.446Z,102304.81
2019-04-21T09:14:30.924Z,102304.63
2019-04-21T09:16:56.547Z,102295.50
2019-04-21T09:19:48.336Z,102296.59
2019-04-21T09:22:05.686Z,102296.77
2019-04-21T09:24:35.162Z,102296.25
2019-04-21T09:27:06.409Z,102283.91
2019-04-21T09:29:26.533Z,102290.50
2019-04-21T09:31:48.499Z,102286.67
2019-04-21T09:34:24.910Z,102281.73
2019-04-21T09:36:52.118Z,102282.61
2019-04-21T09:39:21.992Z,102275.39
2019-04-21T09:41:53.496Z,102277.33
2019-04-21T09:44:30.202Z,102269.67
2019-04-21T09:47:01.024Z,102268.72
2019-04-21T09:49:31.673Z,102264.81
2019-04-21T09:52:02.259Z,102264.61
2019-04-21T09:54:45.231Z,102261.33
2019-04-21T09:57:25.740Z,102254.70
2019-04-21T10:00:02.199Z,102250.44
2019-04-21T10:02:34.291Z,102249.03
2019-04-21T10:05:09.952Z,102250.64
2019-04-21T10:07:50.816Z,102239.80
2019-04-21T10:10:27.607Z,102241.18
2019-04-21T10:13:05.056Z,102236.92
2019-04-21T10:15:37.859Z,102230.67
2019-04-21T10:18:15.129Z,102225.33
2019-04-21T10:20:51.509Z,102225.66
2019-04-21T10:23:27.437Z,102220.02
2019-04-21T10:25:59.045Z,102216.66
2019-04-21T10:28:35.044Z,102215.20
2019-04-21T10:31:14.420Z,102209.48
2019-04-21T10:33:52.650Z,102203.91
2019-04-21T10:36:26.849Z,102200.63
2019-04-21T10:38:57.619Z,102199.97
2019-04-21T10:41:29.834Z,102203.92
2019-04-21T10:44:07.213Z,102191.19
2019-04-21T10:46:40.581Z,102185.54
2019-04-21T10:49:12.926Z,102179.66
2019-04-21T10:51:46.741Z,102177.20
2019-04-21T10:54:22.039Z,102179.98
2019-04-21T10:56:52.618Z,102174.75
2019-04-21T10:59:26.910Z,102173.12
2019-04-21T11:02:00.996Z,102167.14
2019-04-21T11:04:37.379Z,102163.25
2019-04-21T11:07:15.490Z,102161.77
2019-04-21T11:09:44.326Z,102157.91
2019-04-21T11:12:17.621Z,102155.58
2019-04-21T11:14:52.014Z,102156.88
2019-04-21T11:17:25.935Z,102145.01
2019-04-21T11:19:59.084Z,102145.36
2019-04-21T11:22:40.045Z,102137.02
2019-04-21T11:25:15.857Z,102143.83
2019-04-21T11:27:58.801Z,102136.53
2019-04-21T11:30:31.738Z,102130.03
2019-04-21T11:33:07.065Z,102130.69
2019-04-21T11:35:41.353Z,102125.95
2019-04-21T11:38:52.696Z,102124.51
2019-04-21T11:41:08.080Z,102124.21
2019-04-21T11:43:39.155Z,102118.32
2019-04-21T11:46:12.645Z,102113.03
2019-04-21T11:48:48.318Z,102110.47
2019-04-21T11:51:30.941Z,102110.12
2019-04-21T11:54:04.600Z,102106.03
2019-04-21T11:56:48.537Z,102106.50
2019-04-21T11:59:19.622Z,102108.66
2019-04-21T12:01:55.324Z,102098.86
2019-04-21T12:04:25.576Z,102092.92
2019-04-21T12:06:57.875Z,102095.84
2019-04-21T12:09:30.973Z,102090.52
2019-04-21T12:12:03.423Z,102095.30
2019-04-21T12:14:41.978Z,102087.72
2019-04-21T12:17:14.321Z,102086.73
2019-04-21T12:19:52.649Z,102090.35
2019-04-21T12:22:29.969Z,102073.50
2019-04-21T12:24:58.486Z,102072.98
2019-04-21T12:27:32.217Z,102066.12
2019-04-21T12:30:03.915Z,102060.89
2019-04-21T12:32:38.583Z,102059.11
2019-04-21T12:35:17.639Z,102053.13
2019-04-21T12:37:49.359Z,102052.22
2019-04-21T12:40:30.635Z,102050.16
2019-04-21T12:43:00.949Z,102046.95
2019-04-21T12:45:31.614Z,102035.98
2019-04-21T12:48:08.246Z,102035.20
2019-04-21T12:50:43.711Z,102033.47
2019-04-21T12:53:25.560Z,102027.95
2019-04-21T12:55:57.867Z,102021.23
2019-04-21T12:58:31.112Z,102017.85
2019-04-21T13:01:03.038Z,102011.00
2019-04-21T13:03:44.180Z,102007.67
2019-04-21T13:06:15.921Z,102004.12
2019-04-21T13:08:55.622Z,101987.69
2019-04-21T13:11:29.283Z,101995.69
2019-04-21T13:14:03.999Z,101984.34
2019-04-21T13:16:34.572Z,101980.59
2019-04-21T13:19:09.346Z,101972.59
2019-04-21T13:21:42.379Z,101970.03
2019-04-21T13:24:26.069Z,101966.23
2019-04-21T13:26:59.826Z,101968.27
2019-04-21T13:29:32.349Z,101956.38
2019-04-21T13:32:08.909Z,101954.12
2019-04-21T13:34:40.106Z,101943.27
2019-04-21T13:37:12.454Z,101945.80
2019-04-21T13:40:16.120Z,101943.07
2019-04-21T13:42:30.177Z,101940.89
2019-04-21T13:47:42.865Z,101933.00
2019-04-21T13:50:17.341Z,101928.06
2019-04-21T13:52:51.636Z,101930.28
2019-04-21T13:55:23.506Z,101935.20
2019-04-21T13:57:52.879Z,101924.52
2019-04-21T14:00:37.952Z,101931.70
2019-04-21T14:03:21.031Z,101924.80
2019-04-21T14:05:50.656Z,101921.25
2019-04-21T14:08:23.126Z,101923.11
2019-04-21T14:10:55.725Z,101921.64
2019-04-21T14:13:30.267Z,101909.53
2019-04-21T14:16:02.229Z,101900.17
2019-04-21T14:18:34.216Z,101900.17
2019-04-21T14:21:04.975Z,101899.73
2019-04-21T14:23:41.872Z,101886.61
2019-04-21T14:26:08.678Z,101883.09
2019-04-21T14:28:40.957Z,101888.83
2019-04-21T14:31:12.498Z,101872.89
2019-04-21T14:33:44.007Z,101879.50
2019-04-21T14:36:16.767Z,101880.05
2019-04-21T14:38:52.358Z,101871.79
2019-04-21T14:41:28.765Z,101871.44
2019-04-21T14:44:01.060Z,101873.80
2019-04-21T14:46:35.003Z,101863.81
2019-04-21T14:49:19.435Z,101864.58
2019-04-21T14:51:54.819Z,101854.63
2019-04-21T14:54:42.618Z,101854.63
2019-04-21T14:57:15.552Z,101840.28
2019-04-21T14:59:49.091Z,101840.28
2019-04-21T15:02:20.271Z,101855.11
2019-04-21T15:04:51.472Z,101845.44
2019-04-21T15:07:21.440Z,101847.25
2019-04-21T15:10:02.424Z,101853.34
2019-04-21T15:12:25.876Z,101845.34
2019-04-21T15:15:00.255Z,101837.16
2019-04-21T15:17:31.597Z,101836.75
2019-04-21T15:20:10.513Z,101831.44
2019-04-21T15:22:39.190Z,101822.67
2019-04-21T15:25:10.022Z,101822.67
2019-04-21T15:27:46.714Z,101826.23
2019-04-21T15:30:18.679Z,101821.08
2019-04-21T15:32:48.744Z,101823.27
2019-04-21T15:35:17.519Z,101812.77
2019-04-21T15:37:49.865Z,101806.19
2019-04-21T15:40:30.225Z,101800.13
2019-04-21T15:42:52.508Z,101808.84
2019-04-21T15:45:22.241Z,101799.40
2019-04-21T15:47:52.324Z,101799.48
2019-04-21T15:50:24.705Z,101798.95
2019-04-21T15:52:57.951Z,101794.20
2019-04-21T15:55:46.668Z,101788.16
2019-04-21T15:58:24.849Z,101788.16
2019-04-21T16:01:14.496Z,101787.98
2019-04-21T16:03:44.839Z,101787.98
2019-04-21T16:06:14.570Z,101782.15
2019-04-21T16:08:47.496Z,101785.08
2019-04-21T16:11:17.567Z,101793.88
2019-04-21T16:13:47.807Z,101789.33
2019-04-21T16:16:17.538Z,101777.14
2019-04-21T16:18:47.871Z,101780.60
2019-04-21T16:21:18.050Z,101780.60
2019-04-21T16:23:49.040Z,101772.68
2019-04-21T16:26:40.414Z,101770.20
2019-04-21T16:29:13.415Z,101773.28
2019-04-21T16:31:57.470Z,101759.45
2019-04-21T16:34:43.533Z,101756.80
2019-04-21T16:37:25.774Z,101759.64
2019-04-21T16:40:01.257Z,101760.30
2019-04-21T16:42:34.196Z,101753.48
2019-04-21T16:45:10.624Z,101746.06
2019-04-21T16:47:42.179Z,101745.53
2019-04-21T16:50:13.926Z,101751.83
2019-04-21T16:52:48.012Z,101741.68
2019-04-21T16:55:35.236Z,101742.20
2019-04-21T16:58:18.145Z,101743.82
2019-04-21T17:00:57.554Z,101748.37
2019-04-21T17:03:18.862Z,101738.11
2019-04-21T17:05:48.142Z,101746.66
2019-04-21T17:08:18.166Z,101733.38
2019-04-21T17:10:58.965Z,101736.08
2019-04-21T17:13:20.236Z,101740.98
2019-04-21T17:16:07.765Z,101739.26
2019-04-21T17:18:36.740Z,101737.32
2019-04-21T17:20:57.642Z,101735.63
2019-04-21T17:23:25.155Z,101732.56
2019-04-21T17:25:55.211Z,101734.73
2019-04-21T17:28:25.893Z,101733.17
2019-04-21T17:30:56.202Z,101740.46
2019-04-21T17:33:28.031Z,101735.09
2019-04-21T17:35:56.867Z,101734.73
2019-04-21T17:38:26.430Z,101736.86
2019-04-21T17:41:09.452Z,101741.78
2019-04-21T17:43:27.672Z,101744.86
2019-04-21T17:45:59.324Z,101742.52
2019-04-21T17:48:29.282Z,101736.07
2019-04-21T17:51:01.253Z,101738.84
2019-04-21T17:53:38.209Z,101744.59
2019-04-21T17:56:23.462Z,101746.91
2019-04-21T17:59:01.737Z,101750.48
2019-04-21T18:01:32.060Z,101749.55
2019-04-21T18:04:10.910Z,101755.37
2019-04-21T18:06:36.604Z,101759.47
2019-04-21T18:09:20.441Z,101760.73
2019-04-21T18:11:49.438Z,101753.35
2019-04-21T18:13:57.541Z,101765.63
2019-04-21T18:16:35.439Z,101760.28
2019-04-21T18:18:59.150Z,101760.66
2019-04-21T18:21:32.906Z,101769.14
2019-04-21T18:24:08.026Z,101764.31
2019-04-21T18:26:46.779Z,101764.72
2019-04-21T18:29:09.556Z,101771.28
2019-04-21T18:31:44.564Z,101771.44
2019-04-21T18:34:13.980Z,101772.53
2019-04-21T18:36:48.001Z,101774.17
2019-04-21T18:39:34.284Z,101769.63
2019-04-21T18:42:09.409Z,101783.36
2019-04-21T18:44:53.716Z,101777.86
2019-04-21T18:47:31.496Z,101773.40
2019-04-21T18:49:45.931Z,101780.84
2019-04-21T18:52:26.732Z,101776.48
2019-04-21T18:55:01.180Z,101783.16
2019-04-21T18:57:27.400Z,101784.46
2019-04-21T18:59:51.320Z,101789.43
2019-04-21T19:02:22.315Z,101788.34
2019-04-21T19:04:55.854Z,101797.62
2019-04-21T19:07:37.763Z,101794.17
2019-04-21T19:10:33.921Z,101800.76
2019-04-21T19:13:09.130Z,101792.19
2019-04-21T19:15:07.690Z,101795.47
2019-04-21T19:20:13.911Z,101799.53
2019-04-21T19:22:42.084Z,101799.06
2019-04-21T19:25:25.343Z,101797.53
2019-04-21T19:27:41.842Z,101799.72
2019-04-21T19:32:41.342Z,101795.34
2019-04-21T19:35:03.347Z,101797.98
2019-04-21T19:37:43.004Z,101798.61
2019-04-21T19:40:26.916Z,101791.72
2019-04-21T19:42:51.163Z,101792.86
2019-04-21T19:45:26.618Z,101790.25
2019-04-21T19:54:40.925Z,101782.18
2019-04-21T19:57:08.946Z,101787.66
2019-04-21T19:59:44.638Z,101783.41
2019-04-21T20:02:09.630Z,101782.53
2019-04-21T20:04:46.648Z,101778.92
2019-04-21T20:07:23.395Z,101779.98
2019-04-21T20:09:57.644Z,101781.06
2019-04-21T20:12:35.567Z,101779.11
2019-04-21T20:15:08.064Z,101778.19
2019-04-21T20:17:33.534Z,101777.95
2019-04-21T20:19:46.048Z,101774.33
2019-04-21T20:22:15.155Z,101766.69
2019-04-21T20:24:49.998Z,101768.12
2019-04-21T20:27:24.074Z,101761.84
2019-04-21T20:30:03.427Z,101762.22
2019-04-21T20:32:38.470Z,101760.76
2019-04-21T20:35:07.146Z,101760.67
2019-04-21T20:37:31.515Z,101759.37
2019-04-21T20:39:56.190Z,101753.09
2019-04-21T20:42:35.090Z,101759.19
2019-04-21T20:45:25.231Z,101756.05
2019-04-21T20:47:31.163Z,101756.28
2019-04-21T20:50:03.261Z,101757.00
2019-04-21T20:52:41.720Z,101757.36
